Have a Safe July 4th! 

Flight Track Log - Related Links

Times and Time Zones

All times are in EDT time to prevent confusion due to time zone crossing. See the EJA922 flight status page for this flight to view local times or setup timezone preferences in your user account.

Time Position Orientation Groundspeed Altitude Reporting Facility
EDT Latitude Longitude Course Direction KTS MPH feet Rate Location/Type
Thu 05:33:49 PM 39.1333 -76.6333 90° East 220 253 2,800  Level Potomac TRACON
Thu 05:35:38 PM 39.0558 -76.4925 125° Southeast 278 320 6,800 2,343 Climbing Washington Center
Thu 05:36:38 PM 39.0294 -76.3878 108° East 284 327 9,400 2,529 Climbing Washington Center
Thu 05:37:39 PM 39.0303 -76.2756 89° East 298 343 11,900 2,164 Climbing Washington Center
Thu 05:38:40 PM 39.0392 -76.1475 85° East 338 389 13,800 2,118 Climbing Washington Center
Thu 05:39:00 PM 39.0500 -75.7157 90° East  Level FlightAware Approximate
Thu 05:39:38 PM 39.0167 -76.0192 103° East 343 395 16,100  Level Washington Center
Thu 05:40:39 PM 39.0067 -75.8856 95° East 358 412 18,300 1,664 Climbing Washington Center
Thu 05:41:37 PM 38.9944 -75.7464 96° East 378 435 19,400 1,059 Climbing Washington Center
Thu 05:42:38 PM 38.9819 -75.5969 96° East 401 461 20,400 1,131 Climbing Washington Center
Thu 05:43:39 PM 38.9694 -75.4422 96° East 424 488 21,700 1,041 Climbing Washington Center
Thu 05:44:39 PM 38.9567 -75.2872 96° East 429 494 22,500 843 Climbing Washington Center
Thu 05:45:40 PM 38.9417 -75.1406 97° East 446 513 23,400 900 Climbing Washington Center
Thu 05:47:00 PM 38.8847 -74.9337 105° East  Level FlightAware Approximate
Thu 05:47:39 PM 38.8858 -74.8264 105° East 445 512 25,200  Level Washington Center
Thu 05:48:38 PM 38.8492 -74.6667 106° East 455 524 26,200 896 Climbing Washington Center
Thu 05:50:13 PM 38.7919 -74.4122 106° East 460 529 27,500 824 Climbing New York Center
Thu 05:51:11 PM 38.7531 -74.2506 107° East 466 536 28,300 857 Climbing New York Center
Thu 05:52:12 PM 38.7139 -74.0836 107° East 472 543 29,200 793 Climbing New York Center
Thu 05:53:12 PM 38.6619 -73.9297 113° Southeast 472 543 29,900 700 Climbing New York Center
Thu 05:54:12 PM 38.5867 -73.7828 123° Southeast 477 549 30,600 496 Climbing New York Center
Thu 05:55:13 PM 38.5153 -73.6339 121° Southeast 487 560 30,900 -148 Climbing New York Center
Thu 05:56:14 PM 38.4353 -73.4847 124° Southeast 500 575 30,300 -446 Descending New York Center
Thu 05:57:14 PM 38.3556 -73.3256 123° Southeast 520 598 30,000 -153 Descending New York Center
Thu 05:58:12 PM 38.2733 -73.1667 123° Southeast 527 606 30,000  Level New York Center
Thu 05:59:12 PM 38.1933 -73.0081 123° Southeast 532 612 30,000  Level New York Center
Thu 06:00:14 PM 38.1086 -72.8522 125° Southeast 537 618 30,000  Level New York Center
Thu 06:01:12 PM 38.0319 -72.6944 122° Southeast 537 618 30,000  Level New York Center
Thu 06:02:12 PM 37.9511 -72.5369 123° Southeast 537 618 30,000  Level New York Center
Thu 06:03:13 PM 37.8678 -72.3822 124° Southeast 537 618 30,000  Level New York Center
Thu 06:04:14 PM 37.7906 -72.2283 122° Southeast 532 612 30,000  Level New York Center
Thu 06:05:14 PM 37.7089 -72.0847 126° Southeast 525 604 30,000  Level New York Center
Thu 06:06:12 PM 37.6294 -71.9156 121° Southeast 530 610 30,000  Level New York Center
Thu 06:07:13 PM 37.5558 -71.7678 122° Southeast 525 604 30,000  Level New York Center
Thu 06:08:13 PM 37.4589 -71.6225 130° Southeast 540 621 30,000  Level New York Center
Thu 06:09:13 PM 37.3703 -71.4722 127° Southeast 535 616 30,000  Level New York Center
Thu 06:10:13 PM 37.2833 -71.3253 127° Southeast 530 610 30,000  Level New York Center
Thu 06:11:14 PM 37.1964 -71.1786 127° Southeast 530 610 30,000  Level New York Center
Thu 06:13:00 PM 37.0647 -70.9572 127° Southeast  Level FlightAware Approximate
Thu 06:20:00 PM 36.5353 -70.0780 127° Southeast  Level FlightAware Approximate
Thu 06:21:00 PM 36.4593 -69.9533 127° Southeast  Level FlightAware Approximate
Thu 06:22:00 PM 36.3832 -69.8288 127° Southeast  Level FlightAware Approximate
Thu 06:23:00 PM 36.3070 -69.7045 127° Southeast  Level FlightAware Approximate
Thu 06:23:41 PM 36.1667 -69.4500 143° Southeast 507 583 30,000  Level New York Oceanic (ODAPS)
Thu 06:24:00 PM 36.2306 -69.5805 127° Southeast  Level FlightAware Approximate
Thu 06:25:00 PM 36.1541 -69.4567 127° Southeast  Level FlightAware Approximate
Thu 06:26:00 PM 36.0557 -69.3600 142° Southeast  Level FlightAware Approximate
Thu 06:27:00 PM 35.9560 -69.2652 142° Southeast  Level FlightAware Approximate
Thu 06:28:00 PM 35.8562 -69.1705 142° Southeast  Level FlightAware Approximate
Thu 06:29:00 PM 35.3793 -68.7129 143° Southeast 507 583 30,000  Level FlightAware Transoceanic
Thu 06:30:00 PM 35.2665 -68.6088 143° Southeast 507 583 30,000  Level FlightAware Transoceanic
Thu 06:31:00 PM 35.1536 -68.5050 143° Southeast 507 583 30,000  Level FlightAware Transoceanic
Thu 06:32:00 PM 35.0406 -68.4015 143° Southeast 507 583 30,000  Level FlightAware Transoceanic
Thu 06:33:00 PM 34.9275 -68.2982 143° Southeast 507 583 30,000  Level FlightAware Transoceanic
Thu 06:34:00 PM 34.8143 -68.1953 143° Southeast 507 583 30,000  Level FlightAware Transoceanic
Thu 06:35:00 PM 34.7010 -68.0926 143° Southeast 507 583 30,000  Level FlightAware Transoceanic
Thu 06:36:00 PM 34.5876 -67.9902 143° Southeast 507 583 30,000  Level FlightAware Transoceanic
Thu 06:37:00 PM 34.4742 -67.8880 143° Southeast 507 583 30,000  Level FlightAware Transoceanic
Thu 06:38:00 PM 34.3606 -67.7862 144° Southeast 507 583 30,000  Level FlightAware Transoceanic
Thu 06:39:00 PM 34.2470 -67.6846 144° Southeast 507 583 30,000  Level FlightAware Transoceanic
Thu 06:40:00 PM 34.1333 -67.5833 125° Southeast 507 583 30,000  Level FlightAware Transoceanic
Thu 06:41:00 PM 34.0508 -67.4426 125° Southeast 507 583 30,000  Level FlightAware Transoceanic
Thu 06:42:00 PM 33.9680 -67.3020 125° Southeast 507 583 30,000  Level FlightAware Transoceanic
Thu 06:43:00 PM 33.8851 -67.1618 126° Southeast 507 583 30,000  Level FlightAware Transoceanic
Thu 06:43:57 PM 34.1333 -67.5833 125° Southeast 514 592 30,000  Level New York Oceanic (ODAPS)
Thu 06:44:00 PM 33.8021 -67.0219 126° Southeast 507 583 30,000  Level FlightAware Transoceanic
Thu 06:45:00 PM 33.7189 -66.8821 126° Southeast 507 583 30,000  Level FlightAware Transoceanic
Thu 06:45:48 PM 34.1333 -67.5833 125° Southeast 436 502 30,000  Level New York Oceanic (ODAPS)
Thu 06:46:00 PM 33.6355 -66.7427 126° Southeast 507 583 30,000  Level FlightAware Transoceanic
Thu 06:47:00 PM 33.5520 -66.6036 126° Southeast 507 583 30,000  Level FlightAware Transoceanic
Thu 06:48:00 PM 33.4683 -66.4647 126° Southeast 507 583 30,000  Level FlightAware Transoceanic
Thu 06:49:00 PM 33.3844 -66.3261 126° Southeast 507 583 30,000  Level FlightAware Transoceanic
Thu 06:50:00 PM 33.2328 -66.0764 126° Southeast 514 592 30,000  Level FlightAware Transoceanic
Thu 06:51:00 PM 33.1501 -65.9410 126° Southeast 514 592 30,000  Level FlightAware Transoceanic
Thu 06:52:00 PM 33.2140 -66.0456 126° Southeast 436 502 30,000  Level FlightAware Transoceanic
Thu 06:53:00 PM 33.1425 -65.9287 126° Southeast 436 502 30,000  Level FlightAware Transoceanic
Thu 06:54:00 PM 33.0709 -65.8119 126° Southeast 436 502 30,000 -9,836 Level FlightAware Transoceanic
Thu 06:54:01 PM 33.0500 -65.7667 127° Southeast 411 473 20,000  Descending New York Oceanic (ODAPS)
Thu 06:55:00 PM 32.9992 -65.6954 126° Southeast 436 502 30,000 5,042 Climbing FlightAware Transoceanic
Thu 06:56:00 PM 32.9274 -65.5790 126° Southeast 436 502 30,000  Level FlightAware Transoceanic
Thu 06:57:00 PM 32.8554 -65.4628 126° Southeast 436 502 30,000  Level FlightAware Transoceanic
Thu 06:58:00 PM 32.7834 -65.3468 126° Southeast 436 502 30,000  Level FlightAware Transoceanic
Thu 06:59:00 PM 32.7113 -65.2310 127° Southeast 436 502 30,000 -19,839 Level FlightAware Transoceanic
Thu 06:59:02 PM 33.0500 -65.7667 119° Southeast 415 478 9,500 -10,000 Descending New York Oceanic (ODAPS)
Thu 07:00:00 PM 32.6360 -65.1090 127° Southeast 411 473 20,000 5,339 Climbing FlightAware Transoceanic
Thu 07:01:00 PM 32.5667 -65.0000 106° East 411 473 20,000  Level FlightAware Transoceanic
Thu 07:02:00 PM 32.5225 -64.8165 106° East 411 473 20,000 -11,855 Level FlightAware Transoceanic
Thu 07:02:23 PM 33.0500 -65.7667 119° Southeast 415 478 3,600  Descending New York Oceanic (ODAPS)
Thu 07:03:00 PM 32.4780 -64.6331 106° East 411 473 20,000 2,255 Climbing FlightAware Transoceanic
Thu 07:04:00 PM 32.3910 -64.7379 132° Southeast  Level FlightAware Approximate
Thu 07:05:00 PM 32.6275 -64.8595 119° Southeast 415 478 9,500  Level FlightAware Transoceanic
Thu 07:06:00 PM 32.5888 -64.7775 119° Southeast 415 478 9,500  Level FlightAware Transoceanic
Thu 07:07:00 PM 32.5500 -64.6955 119° Southeast 415 478 9,500 -2,950 Level FlightAware Transoceanic
Thu 07:08:00 PM 32.5112 -64.6136 119° Southeast 415 478 3,600 -2,950 Descending FlightAware Transoceanic
Thu 07:09:00 PM 32.4723 -64.5318 119° Southeast 415 478 3,600  Level FlightAware Transoceanic
Thu 07:10:00 PM 32.4333 -64.4500 196° South 415 478 3,600  Level FlightAware Transoceanic
Thu 07:11:00 PM 32.3941 -64.5796 250° West  Level Estimated
Thu 07:12:00 PM 32.3640 -64.6787 250° West  Level Estimated
Thu 07:13:00 PM 32.3640 -64.6787 308° West  Level Estimated
Thu 07:14:00 PM 32.3640 -64.6787 308° West  Level Estimated
Thu 07:15:00 PM 32.3640 -64.6787 308° West  Level Estimated
Thu 07:16:00 PM 32.3640 -64.6787 308° West  Level Estimated

Login

Don't have an account? Register now (free) for customized features, flight alerts, and more!